Time;durP1;ratioP1;P1;durP2;ratioP2;P2;SDS_P1;SDS_P2;PMS_P1;PMS_P2;Temp;Humidity;BMP_temperature;BMP_pressure;BME280_temperature;BME280_humidity;BME280_pressure;Samples;Min_cycle;Max_cycle;Signal;HPM_P1;HPM_P2
2022/01/27 00:05:55;;;;;;;53.40;25.03;;;-2.60;99.90;;;;;;6280383;22;20214;-84
2022/01/27 00:08:38;;;;;;;56.63;27.50;;;-2.50;99.90;;;;;;6280967;22;20583;-84
2022/01/27 00:11:11;;;;;;;60.20;27.70;;;-2.50;99.90;;;;;;6252984;22;20147;-84
2022/01/27 00:13:44;;;;;;;55.40;26.67;;;-2.50;99.90;;;;;;6252415;22;20226;-83
2022/01/27 00:16:21;;;;;;;60.40;27.37;;;-2.60;99.90;;;;;;6280126;22;20167;-84
2022/01/27 00:18:49;;;;;;;59.17;28.07;;;-2.40;99.90;;;;;;6281463;22;20127;-83
2022/01/27 00:21:17;;;;;;;64.00;27.53;;;-2.60;99.90;;;;;;6281109;22;20178;-84
2022/01/27 00:23:45;;;;;;;58.13;27.70;;;-2.50;99.90;;;;;;6279670;22;20151;-85
2022/01/27 00:26:12;;;;;;;67.47;30.93;;;-2.60;99.90;;;;;;6253191;22;20160;-84
2022/01/27 00:28:41;;;;;;;58.07;27.83;;;-2.60;99.90;;;;;;6280501;22;20238;-84
2022/01/27 00:31:08;;;;;;;64.20;30.23;;;-2.50;99.90;;;;;;6280424;22;20537;-84
2022/01/27 00:33:34;;;;;;;59.73;28.07;;;-2.50;99.90;;;;;;6253082;22;20568;-84
2022/01/27 00:36:00;;;;;;;60.30;26.97;;;-2.40;99.90;;;;;;6280021;22;20187;-85
2022/01/27 00:38:26;;;;;;;62.27;27.80;;;-2.30;99.90;;;;;;6279931;22;20480;-83
2022/01/27 00:40:52;;;;;;;62.50;27.57;;;-2.30;99.90;;;;;;6279415;22;20143;-85
2022/01/27 00:43:18;;;;;;;61.07;28.23;;;-2.30;99.90;;;;;;6253150;22;20155;-84
2022/01/27 00:45:44;;;;;;;60.60;27.53;;;-2.30;99.90;;;;;;6281487;22;20230;-84
2022/01/27 00:48:10;;;;;;;61.20;27.93;;;-2.30;99.90;;;;;;6281742;22;20536;-84
2022/01/27 00:50:38;;;;;;;62.93;29.57;;;-2.20;99.90;;;;;;6281779;22;20144;-84
2022/01/27 00:53:16;;;;;;;55.90;28.40;;;-2.30;99.90;;;;;;6281506;22;20150;-85
2022/01/27 00:55:42;;;;;;;68.10;28.87;;;-2.40;99.90;;;;;;6281100;22;20164;-84
2022/01/27 01:00:58;;;;;;;67.90;29.40;;;-2.40;99.90;;;;;;6281865;22;20136;-84
2022/01/27 01:03:32;;;;;;;65.23;28.90;;;-2.30;99.90;;;;;;6281443;22;20143;-84
2022/01/27 01:06:15;;;;;;;62.43;28.50;;;-2.30;99.90;;;;;;6281457;22;20227;-85
2022/01/27 01:34:30;;;;;;;64.73;29.80;;;-2.10;99.90;;;;;;6281474;22;20631;-84
2022/01/27 01:36:58;;;;;;;63.37;28.70;;;-2.10;99.90;;;;;;6280950;22;20223;-85
2022/01/27 01:39:29;;;;;;;87.10;36.93;;;-2.00;99.90;;;;;;6280376;22;20730;-85
2022/01/27 01:41:56;;;;;;;63.73;29.67;;;-2.10;99.90;;;;;;6253455;22;20151;-85
2022/01/27 01:44:22;;;;;;;62.03;29.33;;;-2.10;99.90;;;;;;6262971;22;20194;-84
2022/01/27 01:46:48;;;;;;;62.70;28.43;;;-2.10;99.90;;;;;;6311903;22;20160;-84
2022/01/27 01:49:15;;;;;;;60.63;27.77;;;-2.00;99.90;;;;;;6311433;22;20145;-85
2022/01/27 01:51:43;;;;;;;67.23;29.73;;;-2.00;99.90;;;;;;6311490;22;20211;-85
2022/01/27 01:54:09;;;;;;;58.93;27.53;;;-2.00;99.90;;;;;;6311206;22;20197;-85
2022/01/27 01:56:37;;;;;;;63.47;29.17;;;-2.00;99.90;;;;;;6311610;22;20569;-84
2022/01/27 01:59:05;;;;;;;55.07;26.87;;;-1.90;99.90;;;;;;6284697;22;20187;-84
2022/01/27 02:01:32;;;;;;;54.10;26.57;;;-1.90;99.90;;;;;;6311424;22;20149;-84
2022/01/27 02:04:02;;;;;;;54.67;26.10;;;-1.80;99.90;;;;;;6283819;22;20163;-84
2022/01/27 02:06:39;;;;;;;57.83;27.87;;;-1.80;99.90;;;;;;6311619;22;20161;-84
2022/01/27 02:19:56;;;;;;;58.03;27.30;;;-2.00;99.90;;;;;;6310953;22;20141;-85
2022/01/27 02:22:22;;;;;;;55.03;27.00;;;-1.90;99.90;;;;;;6310632;22;20176;-85
2022/01/27 02:24:48;;;;;;;58.77;26.50;;;-1.90;99.90;;;;;;6311006;22;20173;-85
2022/01/27 02:27:15;;;;;;;55.10;26.30;;;-1.80;99.90;;;;;;6311357;22;20485;-85
2022/01/27 02:29:41;;;;;;;60.60;28.97;;;-1.80;99.90;;;;;;6310864;22;20602;-85
2022/01/27 02:32:08;;;;;;;58.87;27.50;;;-1.80;99.90;;;;;;6283618;22;20196;-85
2022/01/27 02:34:34;;;;;;;59.20;28.27;;;-1.90;99.90;;;;;;6311043;22;20170;-85
2022/01/27 02:37:00;;;;;;;54.53;27.13;;;-1.90;99.90;;;;;;6311492;22;20179;-84
2022/01/27 02:39:26;;;;;;;51.80;26.83;;;-1.80;99.90;;;;;;6310756;22;20227;-85
2022/01/27 02:42:11;;;;;;;56.97;27.43;;;-1.70;99.90;;;;;;6312100;22;20203;-85
2022/01/27 02:44:46;;;;;;;54.03;25.80;;;-1.70;99.90;;;;;;6278486;22;20710;-83
2022/01/27 02:47:16;;;;;;;49.03;25.07;;;-1.70;99.90;;;;;;6282088;22;20165;-85
2022/01/27 02:49:42;;;;;;;53.23;25.47;;;-1.80;99.90;;;;;;6281297;22;20153;-85
2022/01/27 02:52:09;;;;;;;53.13;25.67;;;-1.70;99.90;;;;;;6281029;22;20205;-85
2022/01/27 02:54:34;;;;;;;52.40;25.20;;;-1.30;99.90;;;;;;6277765;22;20205;-85
2022/01/27 02:57:01;;;;;;;56.13;25.23;;;-1.80;99.90;;;;;;6279765;22;20623;-85
2022/01/27 02:59:27;;;;;;;53.63;26.10;;;-1.80;99.90;;;;;;6281188;22;20159;-85
2022/01/27 03:01:53;;;;;;;53.97;24.30;;;-1.90;99.90;;;;;;6280805;22;20483;-85
2022/01/27 03:04:20;;;;;;;56.37;24.57;;;-1.90;99.90;;;;;;6278089;22;20248;-85
2022/01/27 03:06:47;;;;;;;56.77;26.30;;;-2.00;99.90;;;;;;6281928;22;20149;-85
2022/01/27 03:09:13;;;;;;;56.83;25.83;;;-2.00;99.90;;;;;;6282221;22;20153;-85
2022/01/27 03:11:39;;;;;;;55.50;26.83;;;-2.00;99.90;;;;;;6282144;22;20493;-85
2022/01/27 03:14:06;;;;;;;58.30;25.43;;;-2.10;99.90;;;;;;6280644;22;20170;-85
2022/01/27 03:16:32;;;;;;;62.87;26.60;;;-1.70;99.90;;;;;;6281199;22;20177;-85
2022/01/27 03:18:57;;;;;;;59.17;27.13;;;-2.00;99.90;;;;;;6281193;22;20230;-85
2022/01/27 03:21:23;;;;;;;63.90;28.20;;;-2.10;99.90;;;;;;6281522;22;20639;-83
2022/01/27 03:23:49;;;;;;;59.73;25.90;;;-2.00;99.90;;;;;;6280432;22;20145;-83
2022/01/27 03:26:14;;;;;;;57.60;26.30;;;-2.10;99.90;;;;;;6280830;22;20226;-84
2022/01/27 03:28:40;;;;;;;58.60;25.40;;;-2.10;99.90;;;;;;6280334;22;20535;-85
2022/01/27 03:31:06;;;;;;;57.03;25.23;;;-2.10;99.90;;;;;;6280844;22;20149;-82
2022/01/27 03:33:31;;;;;;;57.97;26.17;;;-2.10;99.90;;;;;;6228058;22;20658;-84
2022/01/27 03:35:57;;;;;;;61.20;26.10;;;-2.20;99.90;;;;;;6279508;22;20168;-84
2022/01/27 03:38:22;;;;;;;56.83;25.97;;;-2.20;99.90;;;;;;6280012;22;20482;-82
2022/01/27 03:40:48;;;;;;;59.80;25.97;;;-2.30;99.90;;;;;;6251591;22;20159;-84
2022/01/27 03:43:14;;;;;;;63.50;27.40;;;-2.30;99.90;;;;;;6252428;22;20152;-84
2022/01/27 03:45:39;;;;;;;64.07;26.63;;;-2.30;99.90;;;;;;6279695;22;20185;-84
2022/01/27 03:48:06;;;;;;;56.90;24.73;;;-2.30;99.90;;;;;;6251715;22;20154;-84
2022/01/27 03:50:32;;;;;;;58.30;26.40;;;-2.30;99.90;;;;;;6280280;22;20154;-84
2022/01/27 03:52:58;;;;;;;67.40;28.03;;;-2.40;99.90;;;;;;6280709;22;20161;-84
2022/01/27 03:55:24;;;;;;;74.17;30.17;;;-2.30;99.90;;;;;;6252758;22;20267;-84
2022/01/27 03:57:49;;;;;;;72.60;27.97;;;-2.30;99.90;;;;;;6253071;22;20177;-84
2022/01/27 04:00:18;;;;;;;57.23;26.50;;;-2.20;99.90;;;;;;6280044;22;20152;-84
2022/01/27 04:02:56;;;;;;;68.50;29.50;;;-2.30;99.90;;;;;;6280104;22;20150;-84
2022/01/27 04:05:22;;;;;;;65.13;28.20;;;-2.30;99.90;;;;;;6280669;22;20633;-84
2022/01/27 04:07:48;;;;;;;67.63;26.47;;;-2.20;99.90;;;;;;6252881;22;20156;-84
2022/01/27 04:10:13;;;;;;;64.47;28.40;;;-2.10;99.90;;;;;;6280505;22;20256;-84
2022/01/27 04:12:39;;;;;;;62.63;27.80;;;-2.20;99.90;;;;;;6254001;22;20156;-84
2022/01/27 04:15:08;;;;;;;63.83;26.87;;;-2.20;99.90;;;;;;6280926;22;20168;-84
2022/01/27 04:17:34;;;;;;;64.47;27.50;;;-2.40;99.90;;;;;;6279974;22;20168;-84
2022/01/27 04:19:59;;;;;;;65.67;28.17;;;-2.20;99.90;;;;;;6253015;22;20194;-84
2022/01/27 04:22:25;;;;;;;71.00;28.33;;;-2.30;99.90;;;;;;6280568;22;20182;-82
2022/01/27 04:24:50;;;;;;;71.17;28.03;;;-2.30;99.90;;;;;;6280129;22;20198;-85
2022/01/27 04:27:21;;;;;;;67.07;28.87;;;-2.30;99.90;;;;;;6281896;22;20646;-84
2022/01/27 04:29:46;;;;;;;61.53;28.00;;;-2.20;99.90;;;;;;6283476;22;20130;-84
2022/01/27 04:32:19;;;;;;;64.00;28.73;;;-2.10;99.90;;;;;;6282345;22;20234;-85
2022/01/27 04:34:44;;;;;;;68.73;29.17;;;-2.10;99.90;;;;;;6281651;22;20169;-84
2022/01/27 04:37:12;;;;;;;68.87;28.70;;;-2.00;99.90;;;;;;6281025;22;20177;-85
2022/01/27 04:39:49;;;;;;;68.03;27.87;;;-2.00;99.90;;;;;;6282430;22;20237;-85
2022/01/27 04:42:26;;;;;;;65.63;29.03;;;-2.00;99.90;;;;;;6254489;22;20187;-85
2022/01/27 04:44:58;;;;;;;61.73;27.67;;;-2.00;99.90;;;;;;6281425;22;20176;-85
2022/01/27 04:47:31;;;;;;;69.50;28.83;;;-1.90;99.90;;;;;;6254972;22;20252;-85
2022/01/27 04:49:58;;;;;;;63.67;27.87;;;-1.90;99.90;;;;;;6281501;22;20134;-85
2022/01/27 04:52:25;;;;;;;61.20;27.87;;;-1.90;99.90;;;;;;6281872;22;20492;-85
2022/01/27 04:55:03;;;;;;;60.27;28.03;;;-1.80;99.90;;;;;;6281967;22;20171;-85
2022/01/27 04:57:30;;;;;;;66.10;28.90;;;-1.80;99.90;;;;;;6282281;22;20162;-85
2022/01/27 04:59:56;;;;;;;61.27;25.53;;;-1.90;99.90;;;;;;6282651;22;20146;-85
2022/01/27 05:02:38;;;;;;;60.33;26.93;;;-2.00;99.90;;;;;;6253236;22;20150;-85
2022/01/27 05:05:04;;;;;;;63.00;25.93;;;-2.10;99.90;;;;;;6282246;22;20166;-84
2022/01/27 05:07:30;;;;;;;66.87;27.87;;;-2.20;99.90;;;;;;6254112;22;20490;-84
2022/01/27 05:10:00;;;;;;;63.23;27.00;;;-2.20;99.90;;;;;;6254115;22;20158;-84
2022/01/27 05:14:53;;;;;;;67.07;29.07;;;-2.20;99.90;;;;;;6282104;22;20609;-85
2022/01/27 05:17:19;;;;;;;71.30;29.07;;;-2.10;99.90;;;;;;6281666;22;20227;-84
2022/01/27 05:19:47;;;;;;;66.13;29.40;;;-2.10;99.90;;;;;;6286354;22;20143;-83
2022/01/27 05:22:13;;;;;;;67.63;29.33;;;-2.10;99.90;;;;;;6254173;22;20211;-84
2022/01/27 05:24:39;;;;;;;65.97;28.33;;;-2.10;99.90;;;;;;6286050;22;20166;-84
2022/01/27 05:27:05;;;;;;;66.07;29.13;;;-2.20;99.90;;;;;;6282320;22;20232;-84
2022/01/27 05:29:30;;;;;;;63.53;26.20;;;-2.20;99.90;;;;;;6256368;22;20626;-84
2022/01/27 05:31:56;;;;;;;70.13;28.83;;;-2.10;99.90;;;;;;6258224;22;20150;-84
2022/01/27 05:34:22;;;;;;;69.23;28.40;;;-2.10;99.90;;;;;;6256984;22;20228;-84
2022/01/27 05:36:47;;;;;;;67.20;28.60;;;-2.10;99.90;;;;;;6284699;22;20174;-84
2022/01/27 05:39:13;;;;;;;65.47;28.53;;;-2.10;99.90;;;;;;6286731;22;20142;-84
2022/01/27 05:41:39;;;;;;;66.07;27.27;;;-2.10;99.90;;;;;;6284374;22;20144;-84
2022/01/27 05:44:05;;;;;;;63.37;26.23;;;-2.10;99.90;;;;;;6262063;22;20191;-83
2022/01/27 05:46:31;;;;;;;64.93;27.80;;;-2.10;99.90;;;;;;6287818;22;20156;-84
2022/01/27 05:48:56;;;;;;;65.60;27.47;;;-2.10;99.90;;;;;;6286910;22;20634;-84
2022/01/27 05:51:23;;;;;;;57.97;25.17;;;-2.20;99.90;;;;;;6287520;22;20155;-84
2022/01/27 05:53:48;;;;;;;60.23;25.03;;;-2.40;99.90;;;;;;6315195;22;20160;-84
2022/01/27 05:56:14;;;;;;;55.27;24.10;;;-2.40;99.90;;;;;;6315059;22;20165;-84
2022/01/27 05:58:40;;;;;;;58.97;24.97;;;-2.40;99.90;;;;;;6315294;22;20152;-84
2022/01/27 06:01:05;;;;;;;61.87;25.47;;;-2.30;99.90;;;;;;6314865;22;20201;-84
2022/01/27 06:03:31;;;;;;;65.97;25.57;;;-2.30;99.90;;;;;;6314291;22;20141;-84
2022/01/27 06:05:56;;;;;;;63.03;26.43;;;-2.40;99.90;;;;;;6314210;22;20166;-84
2022/01/27 06:08:22;;;;;;;54.10;23.23;;;-2.30;99.90;;;;;;6287051;22;20471;-84
2022/01/27 06:10:50;;;;;;;64.00;26.80;;;-2.40;99.90;;;;;;6286265;22;20542;-84
2022/01/27 06:13:16;;;;;;;55.80;25.53;;;-2.40;99.90;;;;;;6314065;22;20141;-84
2022/01/27 06:15:41;;;;;;;59.77;25.80;;;-2.30;99.90;;;;;;6314423;22;20160;-84
2022/01/27 06:18:07;;;;;;;57.70;24.73;;;-2.20;99.90;;;;;;6317531;22;20346;-85
2022/01/27 06:20:33;;;;;;;61.43;24.87;;;-2.20;99.90;;;;;;6285873;22;20167;-84
2022/01/27 06:22:59;;;;;;;53.30;25.47;;;-2.10;99.90;;;;;;6312976;22;20522;-84
2022/01/27 06:25:27;;;;;;;60.73;25.03;;;-2.10;99.90;;;;;;6311984;22;20218;-84
2022/01/27 06:27:52;;;;;;;56.97;25.43;;;-2.10;99.90;;;;;;6311983;22;20163;-83
2022/01/27 06:30:19;;;;;;;55.50;24.60;;;-2.10;99.90;;;;;;6313571;22;20152;-84
2022/01/27 06:32:44;;;;;;;55.73;25.60;;;-1.40;99.90;;;;;;6313206;22;20153;-84
2022/01/27 06:35:10;;;;;;;57.10;24.07;;;-2.00;99.90;;;;;;6285325;22;20230;-84
2022/01/27 06:37:36;;;;;;;56.50;24.47;;;-2.10;99.90;;;;;;6311608;22;20164;-84
2022/01/27 06:40:04;;;;;;;55.63;24.30;;;-2.10;99.90;;;;;;6311201;22;20181;-83
2022/01/27 06:42:30;;;;;;;54.70;24.73;;;-2.10;99.90;;;;;;6311056;22;20148;-85
2022/01/27 06:44:55;;;;;;;59.27;24.37;;;-2.10;99.90;;;;;;6294186;22;20658;-84
2022/01/27 06:47:21;;;;;;;59.87;24.77;;;-2.00;99.90;;;;;;6281577;22;20177;-84
2022/01/27 06:49:47;;;;;;;57.47;25.90;;;-1.90;99.90;;;;;;6280141;22;20158;-84
2022/01/27 06:52:13;;;;;;;57.73;26.03;;;-1.90;99.90;;;;;;6252644;22;20160;-85
2022/01/27 06:54:39;;;;;;;56.20;25.80;;;-1.90;99.90;;;;;;6280477;22;20455;-84
2022/01/27 06:57:05;;;;;;;58.47;26.87;;;-1.90;99.90;;;;;;6281344;22;20180;-84
2022/01/27 06:59:31;;;;;;;50.97;24.47;;;-1.90;99.90;;;;;;6281631;22;20174;-84
2022/01/27 07:01:57;;;;;;;55.73;24.10;;;-1.80;99.90;;;;;;6281910;22;20150;-85
2022/01/27 07:04:23;;;;;;;53.53;24.13;;;-1.80;99.90;;;;;;6282810;22;20631;-85
2022/01/27 07:06:51;;;;;;;57.83;25.27;;;-1.80;99.90;;;;;;6282523;22;20147;-84
2022/01/27 07:09:17;;;;;;;53.97;23.97;;;-1.80;99.90;;;;;;6268318;22;20200;-84
2022/01/27 07:11:43;;;;;;;51.53;24.03;;;-1.50;99.90;;;;;;6285789;22;20190;-84
2022/01/27 07:14:09;;;;;;;52.33;23.57;;;-1.70;99.90;;;;;;6283721;22;20158;-83
2022/01/27 07:16:34;;;;;;;55.63;25.47;;;-1.00;99.90;;;;;;6285956;22;20244;-84
2022/01/27 07:19:00;;;;;;;52.17;23.60;;;-1.70;99.90;;;;;;6285940;22;20168;-83
2022/01/27 07:21:26;;;;;;;41.73;21.17;;;-1.70;99.90;;;;;;6284481;22;20157;-83
2022/01/27 07:23:51;;;;;;;49.20;23.13;;;-1.70;99.90;;;;;;6287236;22;20214;-83
2022/01/27 07:26:24;;;;;;;51.97;23.20;;;-1.90;99.90;;;;;;6285327;22;20203;-83
2022/01/27 07:28:50;;;;;;;48.33;21.60;;;-2.00;99.90;;;;;;6283451;22;20569;-83
2022/01/27 07:31:16;;;;;;;56.87;24.80;;;-2.20;99.90;;;;;;6284062;22;20155;-83
2022/01/27 07:33:41;;;;;;;56.73;24.57;;;-2.20;99.90;;;;;;6285319;22;20164;-84
2022/01/27 07:36:07;;;;;;;53.73;24.73;;;-2.20;99.90;;;;;;6284594;22;20160;-83
2022/01/27 07:38:33;;;;;;;55.70;25.03;;;-2.10;99.90;;;;;;6284867;22;20192;-83
2022/01/27 07:40:59;;;;;;;58.47;23.60;;;-2.10;99.90;;;;;;6284879;22;20730;-83
2022/01/27 07:43:24;;;;;;;54.67;24.27;;;-2.00;99.90;;;;;;6284370;22;20174;-82
2022/01/27 07:45:51;;;;;;;51.97;24.27;;;-1.90;99.90;;;;;;6284301;22;20143;-83
2022/01/27 07:48:17;;;;;;;55.30;23.03;;;-2.10;99.90;;;;;;6282823;22;20166;-83
2022/01/27 07:50:44;;;;;;;54.13;22.87;;;-2.10;99.90;;;;;;6282977;22;20234;-83
2022/01/27 07:53:09;;;;;;;53.20;23.80;;;-2.20;99.90;;;;;;6284208;22;20151;-83
2022/01/27 07:55:35;;;;;;;60.40;24.93;;;-2.20;99.90;;;;;;6289762;22;20142;-83
2022/01/27 07:58:00;;;;;;;54.40;24.10;;;-2.10;99.90;;;;;;6301647;22;20168;-83
2022/01/27 08:00:26;;;;;;;57.77;26.87;;;-2.10;99.90;;;;;;6302569;22;20134;-83
2022/01/27 08:02:57;;;;;;;58.03;24.53;;;-2.00;99.90;;;;;;6292049;22;20179;-84
2022/01/27 08:05:23;;;;;;;54.90;25.17;;;-1.80;99.90;;;;;;6264738;22;20150;-84
2022/01/27 08:07:49;;;;;;;60.90;26.33;;;-1.90;99.90;;;;;;6289671;22;20159;-84
2022/01/27 08:10:15;;;;;;;56.50;25.03;;;-1.90;99.90;;;;;;6286886;22;20157;-85
2022/01/27 08:12:42;;;;;;;53.17;24.93;;;-1.80;99.90;;;;;;6285466;22;20146;-84
2022/01/27 08:15:11;;;;;;;49.87;22.83;;;-1.80;99.90;;;;;;6284783;22;20488;-83
2022/01/27 08:17:38;;;;;;;48.27;23.13;;;-1.80;99.90;;;;;;6251862;22;20528;-85
2022/01/27 08:20:04;;;;;;;45.57;22.37;;;-1.80;99.90;;;;;;6284103;22;20174;-84
2022/01/27 08:22:32;;;;;;;49.87;23.70;;;-1.80;99.90;;;;;;6281409;22;20149;-84
2022/01/27 08:24:57;;;;;;;46.57;22.00;;;-1.80;99.90;;;;;;6255744;22;20624;-84
2022/01/27 08:27:28;;;;;;;51.47;22.10;;;-1.80;99.90;;;;;;6257693;22;20164;-83
2022/01/27 08:29:59;;;;;;;53.67;23.47;;;-1.80;99.90;;;;;;6257699;22;20197;-84
2022/01/27 08:32:39;;;;;;;53.43;23.70;;;-1.80;99.90;;;;;;6286795;22;20208;-85
2022/01/27 08:35:05;;;;;;;57.03;22.43;;;-1.70;99.90;;;;;;6282622;22;20200;-83
2022/01/27 08:37:31;;;;;;;51.47;22.23;;;-1.60;99.90;;;;;;6279792;22;20188;-83
2022/01/27 08:39:57;;;;;;;50.37;23.37;;;-1.60;99.90;;;;;;6280687;22;20166;-84
2022/01/27 08:42:22;;;;;;;55.93;23.40;;;-1.60;99.90;;;;;;6282646;22;20224;-84
2022/01/27 08:44:48;;;;;;;53.60;22.57;;;-1.50;99.90;;;;;;6282957;22;20229;-83
2022/01/27 08:47:15;;;;;;;51.73;24.10;;;-1.50;99.90;;;;;;6254082;22;20162;-83
2022/01/27 08:49:43;;;;;;;51.50;23.40;;;-1.50;99.90;;;;;;6256165;22;20243;-83
2022/01/27 08:52:09;;;;;;;38.10;17.73;;;-1.40;99.90;;;;;;6282688;22;20229;-83
2022/01/27 08:54:35;;;;;;;50.87;22.63;;;-1.50;99.90;;;;;;6282155;22;20606;-83
2022/01/27 08:57:00;;;;;;;50.93;23.50;;;-1.50;99.90;;;;;;6255218;22;20177;-83
2022/01/27 08:59:26;;;;;;;45.63;22.57;;;-1.50;99.90;;;;;;6255293;22;20586;-83
2022/01/27 09:01:51;;;;;;;52.23;22.60;;;-1.50;99.90;;;;;;6255151;22;20204;-83
2022/01/27 09:04:17;;;;;;;51.73;23.20;;;-1.40;99.90;;;;;;6256563;22;20167;-83
2022/01/27 09:06:43;;;;;;;53.57;23.13;;;-1.50;99.90;;;;;;6257590;22;20153;-83
2022/01/27 09:09:08;;;;;;;51.17;23.30;;;-1.40;99.90;;;;;;6284562;22;20533;-83
2022/01/27 09:11:34;;;;;;;51.60;24.27;;;-1.40;99.90;;;;;;6284934;22;20493;-83
2022/01/27 09:14:02;;;;;;;51.40;22.70;;;-1.40;99.90;;;;;;6286010;22;20151;-83
2022/01/27 09:16:29;;;;;;;50.53;23.53;;;-1.30;99.90;;;;;;6286997;22;20577;-82
2022/01/27 09:19:01;;;;;;;53.10;25.23;;;-1.20;99.90;;;;;;6287478;22;20242;-82
2022/01/27 09:21:35;;;;;;;46.43;22.80;;;-1.20;99.90;;;;;;6261592;22;20145;-83
2022/01/27 09:24:01;;;;;;;50.00;22.50;;;-1.30;99.90;;;;;;6261989;22;20135;-83
2022/01/27 09:29:05;;;;;;;54.80;24.70;;;-1.20;99.90;;;;;;6291233;22;20181;-83
2022/01/27 09:31:31;;;;;;;46.83;21.83;;;-1.10;99.90;;;;;;6287838;22;20152;-82
2022/01/27 09:33:56;;;;;;;49.70;22.30;;;-0.90;99.90;;;;;;6261657;22;20152;-82
2022/01/27 09:36:22;;;;;;;43.97;22.13;;;-1.00;99.90;;;;;;6259474;22;20183;-82
2022/01/27 09:38:47;;;;;;;45.40;22.30;;;-1.00;99.90;;;;;;6285789;22;20171;-83
2022/01/27 09:41:19;;;;;;;46.10;22.17;;;-1.00;99.90;;;;;;6285710;22;20147;-82
2022/01/27 09:43:48;;;;;;;45.17;22.00;;;-1.00;99.90;;;;;;6285533;22;20141;-83
2022/01/27 09:46:18;;;;;;;45.77;21.90;;;-0.90;99.90;;;;;;6285406;22;20144;-82
2022/01/27 09:48:47;;;;;;;46.60;20.40;;;-0.90;99.90;;;;;;6257795;22;20171;-83
2022/01/27 09:53:45;;;;;;;46.43;21.77;;;-1.00;99.90;;;;;;6294192;22;20143;-82
2022/01/27 09:56:11;;;;;;;41.40;20.93;;;-1.00;99.90;;;;;;6257102;22;20155;-82
2022/01/27 09:58:37;;;;;;;41.20;20.57;;;-1.00;99.90;;;;;;6283925;22;20689;-84
2022/01/27 10:01:04;;;;;;;44.20;20.63;;;-1.00;99.90;;;;;;6256956;22;20151;-82
2022/01/27 10:03:31;;;;;;;47.87;21.90;;;-0.90;99.90;;;;;;6256064;22;20149;-82
2022/01/27 10:06:14;;;;;;;43.33;21.60;;;-0.90;99.90;;;;;;6256797;22;20178;-83
2022/01/27 10:08:41;;;;;;;45.90;21.17;;;-0.70;99.90;;;;;;6263397;22;20591;-83
2022/01/27 10:11:18;;;;;;;44.83;21.40;;;-0.70;99.90;;;;;;6283514;22;20150;-83
2022/01/27 10:13:46;;;;;;;42.83;21.00;;;-0.70;99.90;;;;;;6284264;22;20134;-82
2022/01/27 10:16:41;;;;;;;41.83;20.33;;;-0.80;99.90;;;;;;6283680;22;20155;-83
2022/01/27 10:19:08;;;;;;;46.97;21.23;;;-0.80;99.90;;;;;;6284077;22;20183;-82
2022/01/27 10:21:35;;;;;;;41.73;21.13;;;-0.70;99.90;;;;;;6285891;22;20202;-84
2022/01/27 10:24:23;;;;;;;42.63;20.63;;;-0.60;99.90;;;;;;6280429;22;20146;-82
2022/01/27 10:27:17;;;;;;;43.00;20.43;;;-0.50;99.90;;;;;;6284522;22;20600;-82
2022/01/27 10:32:45;;;;;;;46.47;21.20;;;-0.40;99.90;;;;;;6294962;22;20132;-82
2022/01/27 10:35:13;;;;;;;35.00;17.97;;;0.30;99.90;;;;;;6283356;22;20158;-84
2022/01/27 10:38:03;;;;;;;39.47;19.37;;;-0.30;99.90;;;;;;6283839;22;20515;-83
2022/01/27 10:40:41;;;;;;;38.20;20.60;;;-0.20;99.90;;;;;;6283425;22;20176;-83
2022/01/27 10:43:24;;;;;;;46.30;20.50;;;-0.20;99.90;;;;;;6289490;22;20141;-84
2022/01/27 10:46:06;;;;;;;40.37;20.40;;;-0.10;99.90;;;;;;6284720;22;20596;-83
2022/01/27 10:48:35;;;;;;;34.73;19.17;;;-0.10;99.90;;;;;;6286588;22;20174;-84
2022/01/27 10:53:43;;;;;;;35.03;19.40;;;0.00;99.90;;;;;;6284536;22;20158;-83
2022/01/27 10:56:15;;;;;;;39.80;18.57;;;0.10;99.90;;;;;;6285373;22;20198;-83
2022/01/27 10:58:42;;;;;;;36.23;20.03;;;0.20;99.90;;;;;;6284884;22;20178;-84
2022/01/27 11:01:08;;;;;;;37.50;19.47;;;0.20;99.90;;;;;;6283087;22;20155;-83
2022/01/27 11:03:35;;;;;;;36.63;19.40;;;0.20;99.90;;;;;;6284586;22;20277;-83
2022/01/27 11:06:09;;;;;;;41.63;20.17;;;0.30;99.90;;;;;;6291939;22;20158;-84
2022/01/27 11:08:36;;;;;;;35.23;19.40;;;0.30;99.90;;;;;;6298884;22;20213;-84
2022/01/27 11:11:04;;;;;;;38.07;19.63;;;0.40;99.90;;;;;;6289746;22;20592;-84
2022/01/27 11:13:33;;;;;;;35.43;18.93;;;0.40;99.90;;;;;;6286706;22;20171;-84
2022/01/27 11:15:59;;;;;;;36.63;20.20;;;0.40;99.90;;;;;;6285133;22;20615;-82
2022/01/27 11:18:27;;;;;;;42.33;19.73;;;0.50;99.90;;;;;;6286009;22;20185;-84
2022/01/27 11:21:01;;;;;;;40.40;20.63;;;0.60;99.90;;;;;;6287372;22;20503;-83
2022/01/27 11:25:58;;;;;;;36.50;20.10;;;0.80;99.90;;;;;;6287291;22;20207;-85
2022/01/27 11:28:25;;;;;;;41.93;20.73;;;0.90;99.90;;;;;;6286484;22;20180;-83
2022/01/27 11:31:11;;;;;;;37.00;19.97;;;0.80;99.90;;;;;;6286706;22;20160;-86
2022/01/27 11:33:38;;;;;;;38.00;19.93;;;0.80;99.90;;;;;;6288546;22;20152;-85
2022/01/27 11:36:12;;;;;;;38.37;21.00;;;0.80;99.90;;;;;;6286533;22;20140;-85
2022/01/27 11:38:42;;;;;;;38.10;20.97;;;0.80;99.90;;;;;;6287351;22;20180;-83
2022/01/27 11:41:39;;;;;;;35.80;20.47;;;0.90;99.90;;;;;;6287521;22;20639;-82
2022/01/27 11:44:37;;;;;;;38.80;20.20;;;1.00;99.90;;;;;;6284047;22;20136;-83
2022/01/27 11:47:13;;;;;;;40.53;20.57;;;1.20;99.90;;;;;;6281583;22;20191;-82
2022/01/27 11:50:04;;;;;;;36.97;20.07;;;1.10;99.90;;;;;;6283966;22;20179;-83
2022/01/27 11:52:46;;;;;;;39.60;20.57;;;1.10;99.90;;;;;;6282818;22;20137;-83
2022/01/27 11:55:24;;;;;;;36.87;20.27;;;1.10;99.90;;;;;;6285622;22;20155;-83
2022/01/27 11:57:51;;;;;;;36.87;20.33;;;1.20;99.90;;;;;;6285096;22;20597;-83
2022/01/27 12:00:22;;;;;;;34.90;20.40;;;1.40;99.90;;;;;;6284758;22;20179;-83
2022/01/27 12:03:04;;;;;;;37.43;20.20;;;1.50;99.90;;;;;;6283791;22;20156;-84
2022/01/27 12:05:39;;;;;;;36.83;20.17;;;1.70;99.90;;;;;;6285472;22;20152;-86
2022/01/27 12:08:17;;;;;;;38.70;20.73;;;1.60;99.90;;;;;;6284893;22;20629;-86
2022/01/27 12:10:51;;;;;;;40.00;19.40;;;1.60;99.90;;;;;;6258827;22;20588;-83
2022/01/27 12:19:12;;;;;;;35.80;18.97;;;1.60;99.90;;;;;;6285430;22;20172;-82
2022/01/27 12:21:42;;;;;;;36.10;19.63;;;1.50;99.90;;;;;;6285104;22;20589;-84
2022/01/27 12:24:19;;;;;;;36.97;19.73;;;1.60;99.90;;;;;;6285487;22;20559;-83
2022/01/27 12:26:52;;;;;;;34.03;19.63;;;1.70;99.90;;;;;;6256895;22;20175;-83
2022/01/27 12:29:45;;;;;;;37.57;20.20;;;1.80;99.90;;;;;;6256366;22;20168;-83
2022/01/27 12:32:17;;;;;;;35.23;19.10;;;2.00;99.90;;;;;;6282300;22;20153;-82
2022/01/27 12:34:58;;;;;;;38.17;19.57;;;2.20;99.90;;;;;;6285416;22;20145;-82
2022/01/27 12:37:34;;;;;;;30.20;16.77;;;2.20;99.90;;;;;;6284568;22;20155;-83
2022/01/27 12:40:05;;;;;;;44.37;19.63;;;2.10;99.90;;;;;;6285855;22;20186;-83
2022/01/27 12:42:38;;;;;;;35.87;18.93;;;2.20;99.90;;;;;;6287722;22;20149;-83
2022/01/27 12:45:10;;;;;;;33.90;18.33;;;2.20;99.90;;;;;;6286926;22;20152;-83
2022/01/27 12:47:49;;;;;;;33.37;17.97;;;2.30;99.90;;;;;;6259434;22;20172;-83
2022/01/27 12:50:22;;;;;;;33.33;18.60;;;2.30;99.90;;;;;;6288127;22;20125;-83
2022/01/27 12:52:52;;;;;;;33.40;18.83;;;2.30;99.90;;;;;;6260389;22;20157;-83
2022/01/27 12:55:25;;;;;;;28.43;16.83;;;2.90;99.90;;;;;;6286146;22;20153;-83
2022/01/27 12:57:59;;;;;;;30.73;16.00;;;2.30;99.90;;;;;;6287899;22;20160;-83
2022/01/27 13:00:28;;;;;;;31.87;18.13;;;2.30;99.90;;;;;;6259001;22;20147;-83
2022/01/27 13:03:00;;;;;;;36.40;19.23;;;2.40;99.90;;;;;;6286878;22;20152;-83
2022/01/27 13:05:44;;;;;;;35.50;19.57;;;2.40;99.90;;;;;;6285993;22;20145;-85
2022/01/27 13:08:16;;;;;;;35.00;19.40;;;2.40;99.90;;;;;;6286723;22;20263;-83
2022/01/27 13:10:55;;;;;;;33.20;18.70;;;2.50;99.90;;;;;;6278353;22;20196;-84
2022/01/27 13:13:25;;;;;;;33.33;17.83;;;2.60;99.90;;;;;;6284388;22;20141;-83
2022/01/27 13:15:58;;;;;;;35.30;19.10;;;3.50;99.90;;;;;;6283316;22;20534;-83
2022/01/27 13:18:32;;;;;;;36.70;18.67;;;3.30;99.90;;;;;;6283117;22;20152;-83
2022/01/27 13:21:51;;;;;;;33.53;17.47;;;2.80;99.90;;;;;;6280109;22;20177;-83
2022/01/27 13:24:18;;;;;;;27.90;17.43;;;2.80;99.90;;;;;;6281378;22;20156;-82
2022/01/27 13:26:46;;;;;;;33.27;17.00;;;2.70;99.90;;;;;;6288863;22;20184;-83
2022/01/27 13:29:13;;;;;;;31.27;16.60;;;2.80;99.90;;;;;;6291937;22;20169;-84
2022/01/27 13:31:40;;;;;;;36.43;17.73;;;2.80;99.90;;;;;;6288428;22;20199;-83
2022/01/27 13:34:06;;;;;;;30.77;17.27;;;2.90;99.90;;;;;;6283122;22;20161;-83
2022/01/27 13:36:35;;;;;;;27.50;16.33;;;2.90;99.90;;;;;;6281003;22;20153;-83
2022/01/27 13:41:35;;;;;;;27.77;15.33;;;2.90;99.90;;;;;;6292570;22;20481;-83
2022/01/27 13:44:06;;;;;;;28.87;16.87;;;3.00;99.90;;;;;;6281414;22;20145;-80
2022/01/27 13:46:46;;;;;;;33.20;15.73;;;3.00;99.90;;;;;;6277429;22;20180;-83